sensor_id;sensor_type;location;lat;lon;timestamp;P1;durP1;ratioP1;P2;durP2;ratioP2
12970;SDS011;6550;48.650;8.774;2023-09-12T00:02:16;6.53;;;4.63;;
12970;SDS011;6550;48.650;8.774;2023-09-12T00:04:43;7.43;;;4.70;;
12970;SDS011;6550;48.650;8.774;2023-09-12T00:07:17;5.57;;;4.57;;
12970;SDS011;6550;48.650;8.774;2023-09-12T00:09:43;10.67;;;5.03;;
12970;SDS011;6550;48.650;8.774;2023-09-12T00:12:13;5.80;;;5.10;;
12970;SDS011;6550;48.650;8.774;2023-09-12T00:14:41;4.30;;;3.90;;
12970;SDS011;6550;48.650;8.774;2023-09-12T00:17:13;5.77;;;5.17;;
12970;SDS011;6550;48.650;8.774;2023-09-12T00:19:42;7.68;;;4.90;;
12970;SDS011;6550;48.650;8.774;2023-09-12T00:22:09;5.57;;;5.07;;
12970;SDS011;6550;48.650;8.774;2023-09-12T00:24:40;8.13;;;5.47;;
12970;SDS011;6550;48.650;8.774;2023-09-12T00:27:09;8.10;;;5.00;;
12970;SDS011;6550;48.650;8.774;2023-09-12T00:29:39;8.33;;;5.40;;
12970;SDS011;6550;48.650;8.774;2023-09-12T00:32:10;9.17;;;5.50;;
12970;SDS011;6550;48.650;8.774;2023-09-12T00:34:37;6.90;;;5.13;;
12970;SDS011;6550;48.650;8.774;2023-09-12T00:37:06;9.03;;;5.17;;
12970;SDS011;6550;48.650;8.774;2023-09-12T00:39:33;6.03;;;5.00;;
12970;SDS011;6550;48.650;8.774;2023-09-12T00:42:00;5.97;;;5.23;;
12970;SDS011;6550;48.650;8.774;2023-09-12T00:44:30;7.95;;;5.00;;
12970;SDS011;6550;48.650;8.774;2023-09-12T00:46:57;11.47;;;5.60;;
12970;SDS011;6550;48.650;8.774;2023-09-12T00:49:24;8.53;;;5.30;;
12970;SDS011;6550;48.650;8.774;2023-09-12T00:51:52;8.13;;;5.47;;
12970;SDS011;6550;48.650;8.774;2023-09-12T00:54:22;8.93;;;5.67;;
12970;SDS011;6550;48.650;8.774;2023-09-12T00:56:52;5.73;;;5.20;;
12970;SDS011;6550;48.650;8.774;2023-09-12T00:59:19;8.97;;;5.53;;
12970;SDS011;6550;48.650;8.774;2023-09-12T01:01:49;8.77;;;5.30;;
12970;SDS011;6550;48.650;8.774;2023-09-12T01:04:17;6.20;;;5.00;;
12970;SDS011;6550;48.650;8.774;2023-09-12T01:06:59;6.83;;;4.67;;
12970;SDS011;6550;48.650;8.774;2023-09-12T01:09:26;7.37;;;4.67;;
12970;SDS011;6550;48.650;8.774;2023-09-12T01:11:56;6.20;;;5.37;;
12970;SDS011;6550;48.650;8.774;2023-09-12T01:14:23;8.40;;;4.90;;
12970;SDS011;6550;48.650;8.774;2023-09-12T01:16:52;5.67;;;5.13;;
12970;SDS011;6550;48.650;8.774;2023-09-12T01:19:19;5.57;;;4.57;;
12970;SDS011;6550;48.650;8.774;2023-09-12T01:29:50;7.53;;;4.67;;
12970;SDS011;6550;48.650;8.774;2023-09-12T01:32:20;7.70;;;5.13;;
12970;SDS011;6550;48.650;8.774;2023-09-12T01:34:50;6.07;;;5.33;;
12970;SDS011;6550;48.650;8.774;2023-09-12T01:37:19;6.93;;;5.43;;
12970;SDS011;6550;48.650;8.774;2023-09-12T01:39:50;7.27;;;5.73;;
12970;SDS011;6550;48.650;8.774;2023-09-12T01:42:20;7.87;;;5.47;;
12970;SDS011;6550;48.650;8.774;2023-09-12T01:44:49;8.38;;;5.47;;
12970;SDS011;6550;48.650;8.774;2023-09-12T01:47:19;6.97;;;5.27;;
12970;SDS011;6550;48.650;8.774;2023-09-12T01:49:54;8.50;;;5.40;;
12970;SDS011;6550;48.650;8.774;2023-09-12T01:52:26;10.00;;;5.93;;
12970;SDS011;6550;48.650;8.774;2023-09-12T01:54:59;8.47;;;5.50;;
12970;SDS011;6550;48.650;8.774;2023-09-12T01:57:26;16.83;;;6.10;;
12970;SDS011;6550;48.650;8.774;2023-09-12T01:59:54;9.90;;;5.67;;
12970;SDS011;6550;48.650;8.774;2023-09-12T02:02:20;7.67;;;5.00;;
12970;SDS011;6550;48.650;8.774;2023-09-12T02:07:57;10.50;;;5.70;;
12970;SDS011;6550;48.650;8.774;2023-09-12T02:10:27;13.43;;;5.60;;
12970;SDS011;6550;48.650;8.774;2023-09-12T02:12:54;8.43;;;5.20;;
12970;SDS011;6550;48.650;8.774;2023-09-12T02:15:21;9.50;;;5.97;;
12970;SDS011;6550;48.650;8.774;2023-09-12T02:17:48;7.03;;;5.37;;
12970;SDS011;6550;48.650;8.774;2023-09-12T02:20:17;8.07;;;5.67;;
12970;SDS011;6550;48.650;8.774;2023-09-12T02:22:43;6.17;;;5.57;;
12970;SDS011;6550;48.650;8.774;2023-09-12T02:25:11;8.87;;;5.67;;
12970;SDS011;6550;48.650;8.774;2023-09-12T02:27:38;6.67;;;5.57;;
12970;SDS011;6550;48.650;8.774;2023-09-12T02:30:07;6.77;;;5.30;;
12970;SDS011;6550;48.650;8.774;2023-09-12T02:32:36;10.50;;;5.57;;
12970;SDS011;6550;48.650;8.774;2023-09-12T02:35:03;9.03;;;4.80;;
12970;SDS011;6550;48.650;8.774;2023-09-12T02:37:32;6.47;;;5.40;;
12970;SDS011;6550;48.650;8.774;2023-09-12T02:40:02;19.90;;;5.60;;
12970;SDS011;6550;48.650;8.774;2023-09-12T02:42:31;7.43;;;5.50;;
12970;SDS011;6550;48.650;8.774;2023-09-12T02:45:01;7.77;;;5.17;;
12970;SDS011;6550;48.650;8.774;2023-09-12T02:47:28;5.63;;;5.13;;
12970;SDS011;6550;48.650;8.774;2023-09-12T02:49:57;12.77;;;5.30;;
12970;SDS011;6550;48.650;8.774;2023-09-12T02:52:24;5.70;;;5.07;;
12970;SDS011;6550;48.650;8.774;2023-09-12T02:54:51;14.23;;;6.15;;
12970;SDS011;6550;48.650;8.774;2023-09-12T02:57:17;10.23;;;5.90;;
12970;SDS011;6550;48.650;8.774;2023-09-12T02:59:44;9.23;;;5.47;;
12970;SDS011;6550;48.650;8.774;2023-09-12T03:02:11;8.10;;;5.50;;
12970;SDS011;6550;48.650;8.774;2023-09-12T03:04:38;7.13;;;5.07;;
12970;SDS011;6550;48.650;8.774;2023-09-12T03:07:09;8.13;;;5.37;;
12970;SDS011;6550;48.650;8.774;2023-09-12T03:09:36;11.43;;;5.57;;
12970;SDS011;6550;48.650;8.774;2023-09-12T03:12:04;8.77;;;5.75;;
12970;SDS011;6550;48.650;8.774;2023-09-12T03:14:31;5.83;;;5.30;;
12970;SDS011;6550;48.650;8.774;2023-09-12T03:16:58;7.93;;;5.63;;
12970;SDS011;6550;48.650;8.774;2023-09-12T03:19:28;6.33;;;4.80;;
12970;SDS011;6550;48.650;8.774;2023-09-12T03:21:56;5.87;;;5.33;;
12970;SDS011;6550;48.650;8.774;2023-09-12T03:24:23;8.50;;;5.40;;
12970;SDS011;6550;48.650;8.774;2023-09-12T03:26:55;8.43;;;5.40;;
12970;SDS011;6550;48.650;8.774;2023-09-12T03:29:24;8.63;;;6.13;;
12970;SDS011;6550;48.650;8.774;2023-09-12T03:31:53;6.80;;;5.30;;
12970;SDS011;6550;48.650;8.774;2023-09-12T03:34:20;13.77;;;5.53;;
12970;SDS011;6550;48.650;8.774;2023-09-12T03:36:49;6.70;;;5.23;;
12970;SDS011;6550;48.650;8.774;2023-09-12T03:39:21;6.53;;;5.85;;
12970;SDS011;6550;48.650;8.774;2023-09-12T03:41:50;6.87;;;5.10;;
12970;SDS011;6550;48.650;8.774;2023-09-12T03:44:16;8.77;;;5.10;;
12970;SDS011;6550;48.650;8.774;2023-09-12T03:46:43;8.90;;;5.33;;
12970;SDS011;6550;48.650;8.774;2023-09-12T03:49:10;6.87;;;5.07;;
12970;SDS011;6550;48.650;8.774;2023-09-12T03:51:39;9.53;;;5.80;;
12970;SDS011;6550;48.650;8.774;2023-09-12T03:54:08;10.77;;;6.17;;
12970;SDS011;6550;48.650;8.774;2023-09-12T03:56:35;11.57;;;6.60;;
12970;SDS011;6550;48.650;8.774;2023-09-12T03:59:02;13.87;;;7.17;;
12970;SDS011;6550;48.650;8.774;2023-09-12T04:01:29;17.57;;;8.20;;
12970;SDS011;6550;48.650;8.774;2023-09-12T04:03:55;18.50;;;9.17;;
12970;SDS011;6550;48.650;8.774;2023-09-12T04:06:25;12.97;;;7.63;;
12970;SDS011;6550;48.650;8.774;2023-09-12T04:08:51;12.63;;;7.20;;
12970;SDS011;6550;48.650;8.774;2023-09-12T04:11:19;11.47;;;6.63;;
12970;SDS011;6550;48.650;8.774;2023-09-12T04:14:05;12.67;;;6.47;;
12970;SDS011;6550;48.650;8.774;2023-09-12T04:16:31;16.70;;;6.70;;
12970;SDS011;6550;48.650;8.774;2023-09-12T04:19:00;13.60;;;6.67;;
12970;SDS011;6550;48.650;8.774;2023-09-12T04:21:29;12.37;;;5.80;;
12970;SDS011;6550;48.650;8.774;2023-09-12T04:23:56;9.45;;;6.15;;
12970;SDS011;6550;48.650;8.774;2023-09-12T04:26:23;8.10;;;5.43;;
12970;SDS011;6550;48.650;8.774;2023-09-12T04:28:49;10.13;;;5.97;;
12970;SDS011;6550;48.650;8.774;2023-09-12T04:31:19;10.90;;;5.67;;
12970;SDS011;6550;48.650;8.774;2023-09-12T04:33:46;6.80;;;5.63;;
12970;SDS011;6550;48.650;8.774;2023-09-12T04:36:13;5.80;;;5.30;;
12970;SDS011;6550;48.650;8.774;2023-09-12T04:38:39;7.13;;;5.40;;
12970;SDS011;6550;48.650;8.774;2023-09-12T04:41:07;7.38;;;5.63;;
12970;SDS011;6550;48.650;8.774;2023-09-12T04:43:33;7.03;;;5.87;;
12970;SDS011;6550;48.650;8.774;2023-09-12T04:46:03;6.17;;;5.57;;
12970;SDS011;6550;48.650;8.774;2023-09-12T04:48:34;8.03;;;5.00;;
12970;SDS011;6550;48.650;8.774;2023-09-12T04:51:01;17.10;;;5.93;;
12970;SDS011;6550;48.650;8.774;2023-09-12T04:53:28;6.60;;;5.90;;
12970;SDS011;6550;48.650;8.774;2023-09-12T04:56:01;7.30;;;5.60;;
12970;SDS011;6550;48.650;8.774;2023-09-12T04:58:28;9.23;;;6.00;;
12970;SDS011;6550;48.650;8.774;2023-09-12T05:00:55;9.30;;;6.60;;
12970;SDS011;6550;48.650;8.774;2023-09-12T05:03:22;10.37;;;5.47;;
12970;SDS011;6550;48.650;8.774;2023-09-12T05:05:53;10.10;;;5.77;;
12970;SDS011;6550;48.650;8.774;2023-09-12T05:08:20;8.63;;;6.55;;
12970;SDS011;6550;48.650;8.774;2023-09-12T05:10:46;9.17;;;5.87;;
12970;SDS011;6550;48.650;8.774;2023-09-12T05:13:13;8.87;;;5.70;;
12970;SDS011;6550;48.650;8.774;2023-09-12T05:15:40;7.50;;;5.83;;
12970;SDS011;6550;48.650;8.774;2023-09-12T05:18:09;6.83;;;5.73;;
12970;SDS011;6550;48.650;8.774;2023-09-12T05:20:37;9.67;;;5.90;;
12970;SDS011;6550;48.650;8.774;2023-09-12T05:23:06;7.47;;;5.47;;
12970;SDS011;6550;48.650;8.774;2023-09-12T05:25:37;11.37;;;5.60;;
12970;SDS011;6550;48.650;8.774;2023-09-12T05:28:04;9.90;;;5.55;;
12970;SDS011;6550;48.650;8.774;2023-09-12T05:30:31;8.80;;;5.40;;
12970;SDS011;6550;48.650;8.774;2023-09-12T05:32:58;7.90;;;5.40;;
12970;SDS011;6550;48.650;8.774;2023-09-12T05:35:27;9.40;;;5.30;;
12970;SDS011;6550;48.650;8.774;2023-09-12T05:37:54;9.57;;;5.50;;
12970;SDS011;6550;48.650;8.774;2023-09-12T05:40:20;9.90;;;5.90;;
12970;SDS011;6550;48.650;8.774;2023-09-12T05:42:50;7.20;;;5.30;;
12970;SDS011;6550;48.650;8.774;2023-09-12T05:45:19;7.43;;;5.70;;
12970;SDS011;6550;48.650;8.774;2023-09-12T05:47:48;7.87;;;5.47;;
12970;SDS011;6550;48.650;8.774;2023-09-12T05:50:18;10.77;;;5.87;;
12970;SDS011;6550;48.650;8.774;2023-09-12T05:52:48;8.43;;;5.50;;
12970;SDS011;6550;48.650;8.774;2023-09-12T05:55:17;6.57;;;5.70;;
12970;SDS011;6550;48.650;8.774;2023-09-12T05:57:47;8.40;;;5.53;;
12970;SDS011;6550;48.650;8.774;2023-09-12T06:00:18;8.97;;;5.50;;
12970;SDS011;6550;48.650;8.774;2023-09-12T06:02:46;6.50;;;5.87;;
12970;SDS011;6550;48.650;8.774;2023-09-12T06:05:16;6.63;;;5.20;;
12970;SDS011;6550;48.650;8.774;2023-09-12T06:07:45;8.03;;;6.37;;
12970;SDS011;6550;48.650;8.774;2023-09-12T06:10:13;9.47;;;5.97;;
12970;SDS011;6550;48.650;8.774;2023-09-12T06:12:42;8.05;;;6.05;;
12970;SDS011;6550;48.650;8.774;2023-09-12T06:15:09;7.33;;;5.17;;
12970;SDS011;6550;48.650;8.774;2023-09-12T06:17:36;7.03;;;6.33;;
12970;SDS011;6550;48.650;8.774;2023-09-12T06:20:03;8.23;;;6.03;;
12970;SDS011;6550;48.650;8.774;2023-09-12T06:22:33;11.17;;;5.70;;
12970;SDS011;6550;48.650;8.774;2023-09-12T06:25:00;8.07;;;5.60;;
12970;SDS011;6550;48.650;8.774;2023-09-12T06:27:27;6.80;;;5.47;;
12970;SDS011;6550;48.650;8.774;2023-09-12T06:29:54;6.70;;;6.00;;
12970;SDS011;6550;48.650;8.774;2023-09-12T06:32:21;8.90;;;6.70;;
12970;SDS011;6550;48.650;8.774;2023-09-12T06:34:47;13.13;;;7.30;;
12970;SDS011;6550;48.650;8.774;2023-09-12T06:37:16;7.57;;;6.77;;
12970;SDS011;6550;48.650;8.774;2023-09-12T06:39:44;10.47;;;6.80;;
12970;SDS011;6550;48.650;8.774;2023-09-12T06:42:11;8.60;;;7.20;;
12970;SDS011;6550;48.650;8.774;2023-09-12T06:44:38;7.80;;;6.30;;
12970;SDS011;6550;48.650;8.774;2023-09-12T06:47:05;7.80;;;7.10;;
12970;SDS011;6550;48.650;8.774;2023-09-12T06:49:32;9.77;;;7.00;;
12970;SDS011;6550;48.650;8.774;2023-09-12T06:52:01;7.03;;;6.43;;
12970;SDS011;6550;48.650;8.774;2023-09-12T06:54:28;8.30;;;6.57;;
12970;SDS011;6550;48.650;8.774;2023-09-12T06:57:00;10.63;;;6.63;;
12970;SDS011;6550;48.650;8.774;2023-09-12T06:59:27;11.10;;;5.90;;
12970;SDS011;6550;48.650;8.774;2023-09-12T07:01:59;9.03;;;6.53;;
12970;SDS011;6550;48.650;8.774;2023-09-12T07:04:29;9.80;;;6.20;;
12970;SDS011;6550;48.650;8.774;2023-09-12T07:06:56;7.63;;;6.83;;
12970;SDS011;6550;48.650;8.774;2023-09-12T07:09:25;8.83;;;6.70;;
12970;SDS011;6550;48.650;8.774;2023-09-12T07:11:57;8.10;;;6.50;;
12970;SDS011;6550;48.650;8.774;2023-09-12T07:14:26;11.33;;;6.87;;
12970;SDS011;6550;48.650;8.774;2023-09-12T07:16:53;11.53;;;7.10;;
12970;SDS011;6550;48.650;8.774;2023-09-12T07:19:20;11.77;;;7.00;;
12970;SDS011;6550;48.650;8.774;2023-09-12T07:21:47;7.40;;;6.70;;
12970;SDS011;6550;48.650;8.774;2023-09-12T07:24:16;10.73;;;6.60;;
12970;SDS011;6550;48.650;8.774;2023-09-12T07:26:47;7.40;;;6.40;;
12970;SDS011;6550;48.650;8.774;2023-09-12T07:29:16;8.70;;;6.90;;
12970;SDS011;6550;48.650;8.774;2023-09-12T07:31:45;12.23;;;6.20;;
12970;SDS011;6550;48.650;8.774;2023-09-12T07:34:17;8.13;;;5.93;;
12970;SDS011;6550;48.650;8.774;2023-09-12T07:36:44;8.37;;;6.37;;
12970;SDS011;6550;48.650;8.774;2023-09-12T07:39:11;9.83;;;6.03;;
12970;SDS011;6550;48.650;8.774;2023-09-12T07:41:41;11.00;;;6.50;;
12970;SDS011;6550;48.650;8.774;2023-09-12T07:44:12;9.13;;;6.80;;
12970;SDS011;6550;48.650;8.774;2023-09-12T07:46:41;10.67;;;5.80;;
12970;SDS011;6550;48.650;8.774;2023-09-12T07:49:09;6.67;;;5.93;;
12970;SDS011;6550;48.650;8.774;2023-09-12T07:51:38;6.60;;;5.83;;
12970;SDS011;6550;48.650;8.774;2023-09-12T07:54:07;8.27;;;5.47;;
12970;SDS011;6550;48.650;8.774;2023-09-12T07:56:36;11.20;;;5.47;;
12970;SDS011;6550;48.650;8.774;2023-09-12T07:59:03;6.67;;;5.97;;
12970;SDS011;6550;48.650;8.774;2023-09-12T08:01:32;8.80;;;6.00;;
12970;SDS011;6550;48.650;8.774;2023-09-12T08:03:59;9.30;;;6.53;;
12970;SDS011;6550;48.650;8.774;2023-09-12T08:06:28;7.03;;;5.37;;
12970;SDS011;6550;48.650;8.774;2023-09-12T08:09:09;9.43;;;6.32;;
12970;SDS011;6550;48.650;8.774;2023-09-12T08:11:39;8.43;;;5.83;;
12970;SDS011;6550;48.650;8.774;2023-09-12T08:14:10;8.67;;;5.30;;
12970;SDS011;6550;48.650;8.774;2023-09-12T08:16:37;7.73;;;5.43;;
12970;SDS011;6550;48.650;8.774;2023-09-12T08:19:06;9.87;;;6.10;;
12970;SDS011;6550;48.650;8.774;2023-09-12T08:21:40;8.93;;;5.90;;
12970;SDS011;6550;48.650;8.774;2023-09-12T08:24:09;10.17;;;6.20;;
12970;SDS011;6550;48.650;8.774;2023-09-12T08:26:35;10.00;;;6.63;;
12970;SDS011;6550;48.650;8.774;2023-09-12T08:29:02;7.50;;;5.37;;
12970;SDS011;6550;48.650;8.774;2023-09-12T08:31:31;8.57;;;5.87;;
12970;SDS011;6550;48.650;8.774;2023-09-12T08:33:58;6.33;;;5.67;;
12970;SDS011;6550;48.650;8.774;2023-09-12T08:36:29;7.07;;;5.87;;
12970;SDS011;6550;48.650;8.774;2023-09-12T08:39:01;8.17;;;5.80;;
12970;SDS011;6550;48.650;8.774;2023-09-12T08:41:28;10.63;;;6.10;;
12970;SDS011;6550;48.650;8.774;2023-09-12T08:43:58;7.37;;;5.30;;
12970;SDS011;6550;48.650;8.774;2023-09-12T08:46:27;6.27;;;5.67;;
12970;SDS011;6550;48.650;8.774;2023-09-12T08:48:55;8.37;;;5.43;;
12970;SDS011;6550;48.650;8.774;2023-09-12T08:51:22;6.87;;;5.63;;
12970;SDS011;6550;48.650;8.774;2023-09-12T08:53:54;8.87;;;5.97;;
12970;SDS011;6550;48.650;8.774;2023-09-12T08:56:21;7.57;;;5.88;;
12970;SDS011;6550;48.650;8.774;2023-09-12T08:58:48;6.50;;;5.70;;
12970;SDS011;6550;48.650;8.774;2023-09-12T09:01:16;7.17;;;5.90;;
12970;SDS011;6550;48.650;8.774;2023-09-12T09:03:47;7.10;;;5.50;;
12970;SDS011;6550;48.650;8.774;2023-09-12T09:06:14;6.93;;;5.73;;
12970;SDS011;6550;48.650;8.774;2023-09-12T09:08:42;9.52;;;5.85;;
12970;SDS011;6550;48.650;8.774;2023-09-12T09:11:11;7.77;;;6.00;;
12970;SDS011;6550;48.650;8.774;2023-09-12T09:13:38;8.13;;;5.83;;
12970;SDS011;6550;48.650;8.774;2023-09-12T09:18:53;6.00;;;5.43;;
12970;SDS011;6550;48.650;8.774;2023-09-12T09:21:25;8.00;;;5.53;;
12970;SDS011;6550;48.650;8.774;2023-09-12T09:24:03;5.70;;;5.17;;
12970;SDS011;6550;48.650;8.774;2023-09-12T09:29:18;6.63;;;5.50;;
12970;SDS011;6550;48.650;8.774;2023-09-12T09:31:50;6.20;;;5.50;;
12970;SDS011;6550;48.650;8.774;2023-09-12T09:34:18;6.53;;;5.13;;
12970;SDS011;6550;48.650;8.774;2023-09-12T09:36:48;6.80;;;5.20;;
12970;SDS011;6550;48.650;8.774;2023-09-12T09:39:20;5.90;;;5.30;;
12970;SDS011;6550;48.650;8.774;2023-09-12T09:41:51;7.07;;;4.80;;
12970;SDS011;6550;48.650;8.774;2023-09-12T09:44:20;9.13;;;5.47;;
12970;SDS011;6550;48.650;8.774;2023-09-12T09:46:55;6.60;;;5.20;;
12970;SDS011;6550;48.650;8.774;2023-09-12T09:49:32;7.37;;;4.70;;
12970;SDS011;6550;48.650;8.774;2023-09-12T09:52:03;6.27;;;4.67;;
12970;SDS011;6550;48.650;8.774;2023-09-12T09:54:32;6.00;;;4.70;;
12970;SDS011;6550;48.650;8.774;2023-09-12T09:56:59;8.60;;;4.40;;
12970;SDS011;6550;48.650;8.774;2023-09-12T09:59:26;7.57;;;4.53;;
12970;SDS011;6550;48.650;8.774;2023-09-12T10:01:57;5.37;;;4.80;;
12970;SDS011;6550;48.650;8.774;2023-09-12T10:04:28;5.30;;;4.57;;
12970;SDS011;6550;48.650;8.774;2023-09-12T10:06:56;6.33;;;4.90;;
12970;SDS011;6550;48.650;8.774;2023-09-12T10:09:26;6.73;;;4.90;;
12970;SDS011;6550;48.650;8.774;2023-09-12T10:11:58;7.77;;;4.70;;
12970;SDS011;6550;48.650;8.774;2023-09-12T10:14:25;9.80;;;5.03;;
12970;SDS011;6550;48.650;8.774;2023-09-12T10:16:56;4.30;;;4.00;;
12970;SDS011;6550;48.650;8.774;2023-09-12T10:19:48;8.67;;;4.23;;
12970;SDS011;6550;48.650;8.774;2023-09-12T10:22:24;4.60;;;4.20;;
12970;SDS011;6550;48.650;8.774;2023-09-12T10:25:00;5.87;;;5.10;;
12970;SDS011;6550;48.650;8.774;2023-09-12T10:27:27;8.87;;;4.97;;
12970;SDS011;6550;48.650;8.774;2023-09-12T10:29:55;7.33;;;4.70;;
12970;SDS011;6550;48.650;8.774;2023-09-12T10:32:26;7.93;;;5.07;;
12970;SDS011;6550;48.650;8.774;2023-09-12T10:34:54;5.23;;;4.73;;
12970;SDS011;6550;48.650;8.774;2023-09-12T10:37:25;7.13;;;4.53;;
12970;SDS011;6550;48.650;8.774;2023-09-12T10:39:54;6.23;;;4.60;;
12970;SDS011;6550;48.650;8.774;2023-09-12T10:42:27;6.22;;;5.03;;
12970;SDS011;6550;48.650;8.774;2023-09-12T10:44:57;6.10;;;5.23;;
12970;SDS011;6550;48.650;8.774;2023-09-12T10:47:29;6.17;;;4.83;;
12970;SDS011;6550;48.650;8.774;2023-09-12T10:49:59;4.93;;;4.43;;
12970;SDS011;6550;48.650;8.774;2023-09-12T10:52:26;5.57;;;5.07;;
12970;SDS011;6550;48.650;8.774;2023-09-12T10:54:54;5.60;;;5.00;;
12970;SDS011;6550;48.650;8.774;2023-09-12T10:57:21;5.30;;;4.80;;
12970;SDS011;6550;48.650;8.774;2023-09-12T11:02:39;7.47;;;5.27;;
12970;SDS011;6550;48.650;8.774;2023-09-12T11:05:07;5.30;;;4.60;;
12970;SDS011;6550;48.650;8.774;2023-09-12T11:07:56;6.93;;;5.40;;
12970;SDS011;6550;48.650;8.774;2023-09-12T11:10:27;8.57;;;5.40;;
12970;SDS011;6550;48.650;8.774;2023-09-12T11:12:55;6.07;;;5.50;;
12970;SDS011;6550;48.650;8.774;2023-09-12T11:15:27;5.43;;;4.93;;
12970;SDS011;6550;48.650;8.774;2023-09-12T11:21:00;5.33;;;4.90;;
12970;SDS011;6550;48.650;8.774;2023-09-12T11:23:24;5.63;;;5.13;;
12970;SDS011;6550;48.650;8.774;2023-09-12T11:26:05;4.70;;;4.30;;
12970;SDS011;6550;48.650;8.774;2023-09-12T11:28:36;6.73;;;4.60;;
12970;SDS011;6550;48.650;8.774;2023-09-12T11:31:05;5.03;;;4.53;;
12970;SDS011;6550;48.650;8.774;2023-09-12T11:33:33;5.33;;;4.83;;
12970;SDS011;6550;48.650;8.774;2023-09-12T11:36:00;5.60;;;4.83;;
12970;SDS011;6550;48.650;8.774;2023-09-12T11:38:39;5.27;;;4.87;;
12970;SDS011;6550;48.650;8.774;2023-09-12T11:41:08;4.40;;;4.10;;
12970;SDS011;6550;48.650;8.774;2023-09-12T11:43:34;4.80;;;4.40;;
12970;SDS011;6550;48.650;8.774;2023-09-12T11:46:04;5.60;;;4.47;;
12970;SDS011;6550;48.650;8.774;2023-09-12T11:48:32;5.70;;;4.40;;
12970;SDS011;6550;48.650;8.774;2023-09-12T11:51:01;4.97;;;4.30;;
12970;SDS011;6550;48.650;8.774;2023-09-12T11:53:33;5.70;;;5.00;;
12970;SDS011;6550;48.650;8.774;2023-09-12T11:56:02;4.63;;;4.03;;
12970;SDS011;6550;48.650;8.774;2023-09-12T11:58:31;5.67;;;4.63;;
12970;SDS011;6550;48.650;8.774;2023-09-12T12:00:58;5.07;;;4.17;;
12970;SDS011;6550;48.650;8.774;2023-09-12T12:03:28;5.03;;;4.53;;
12970;SDS011;6550;48.650;8.774;2023-09-12T12:05:55;5.27;;;4.40;;
12970;SDS011;6550;48.650;8.774;2023-09-12T12:08:23;5.37;;;4.67;;
12970;SDS011;6550;48.650;8.774;2023-09-12T12:10:53;5.10;;;4.67;;
12970;SDS011;6550;48.650;8.774;2023-09-12T12:13:21;5.10;;;4.57;;
12970;SDS011;6550;48.650;8.774;2023-09-12T12:15:51;5.10;;;4.60;;
12970;SDS011;6550;48.650;8.774;2023-09-12T12:18:18;4.83;;;4.43;;
12970;SDS011;6550;48.650;8.774;2023-09-12T12:20:45;6.33;;;4.47;;
12970;SDS011;6550;48.650;8.774;2023-09-12T12:23:12;5.37;;;4.87;;
12970;SDS011;6550;48.650;8.774;2023-09-12T12:25:39;5.40;;;4.90;;
12970;SDS011;6550;48.650;8.774;2023-09-12T12:28:10;5.07;;;4.53;;
12970;SDS011;6550;48.650;8.774;2023-09-12T12:30:37;4.90;;;4.40;;
12970;SDS011;6550;48.650;8.774;2023-09-12T12:33:08;7.03;;;5.07;;
12970;SDS011;6550;48.650;8.774;2023-09-12T12:36:03;5.43;;;4.93;;
12970;SDS011;6550;48.650;8.774;2023-09-12T12:38:41;6.63;;;4.70;;
12970;SDS011;6550;48.650;8.774;2023-09-12T12:41:27;7.53;;;4.80;;
12970;SDS011;6550;48.650;8.774;2023-09-12T12:44:14;5.70;;;4.83;;
12970;SDS011;6550;48.650;8.774;2023-09-12T12:46:52;9.90;;;5.10;;
12970;SDS011;6550;48.650;8.774;2023-09-12T12:49:20;8.40;;;5.10;;
12970;SDS011;6550;48.650;8.774;2023-09-12T12:51:47;7.53;;;5.00;;
12970;SDS011;6550;48.650;8.774;2023-09-12T12:54:21;6.57;;;5.37;;
12970;SDS011;6550;48.650;8.774;2023-09-12T12:56:50;7.83;;;5.50;;
12970;SDS011;6550;48.650;8.774;2023-09-12T12:59:17;8.00;;;4.93;;
12970;SDS011;6550;48.650;8.774;2023-09-12T13:01:44;12.43;;;5.40;;
12970;SDS011;6550;48.650;8.774;2023-09-12T13:04:11;8.10;;;5.00;;
12970;SDS011;6550;48.650;8.774;2023-09-12T13:06:38;9.23;;;5.20;;
12970;SDS011;6550;48.650;8.774;2023-09-12T13:09:11;7.60;;;5.37;;
12970;SDS011;6550;48.650;8.774;2023-09-12T13:11:42;5.20;;;4.70;;
12970;SDS011;6550;48.650;8.774;2023-09-12T13:14:12;5.53;;;4.73;;
12970;SDS011;6550;48.650;8.774;2023-09-12T13:16:50;8.40;;;5.23;;
12970;SDS011;6550;48.650;8.774;2023-09-12T13:19:19;6.17;;;4.63;;
12970;SDS011;6550;48.650;8.774;2023-09-12T13:21:49;8.87;;;5.37;;
12970;SDS011;6550;48.650;8.774;2023-09-12T13:24:16;9.57;;;6.17;;
12970;SDS011;6550;48.650;8.774;2023-09-12T13:26:42;12.13;;;5.50;;
12970;SDS011;6550;48.650;8.774;2023-09-12T13:29:09;11.97;;;5.60;;
12970;SDS011;6550;48.650;8.774;2023-09-12T13:31:36;7.83;;;5.90;;
12970;SDS011;6550;48.650;8.774;2023-09-12T13:34:05;9.57;;;5.63;;
12970;SDS011;6550;48.650;8.774;2023-09-12T13:36:35;13.60;;;5.63;;
12970;SDS011;6550;48.650;8.774;2023-09-12T13:39:02;12.43;;;6.53;;
12970;SDS011;6550;48.650;8.774;2023-09-12T13:41:32;13.73;;;6.33;;
12970;SDS011;6550;48.650;8.774;2023-09-12T13:43:59;11.13;;;6.63;;
12970;SDS011;6550;48.650;8.774;2023-09-12T13:46:25;11.13;;;5.80;;
12970;SDS011;6550;48.650;8.774;2023-09-12T13:48:52;11.87;;;6.60;;
12970;SDS011;6550;48.650;8.774;2023-09-12T13:51:19;13.60;;;5.57;;
12970;SDS011;6550;48.650;8.774;2023-09-12T13:53:48;10.50;;;6.20;;
12970;SDS011;6550;48.650;8.774;2023-09-12T13:56:15;11.20;;;6.07;;
12970;SDS011;6550;48.650;8.774;2023-09-12T13:58:51;8.33;;;5.33;;
12970;SDS011;6550;48.650;8.774;2023-09-12T14:01:20;6.27;;;4.70;;
12970;SDS011;6550;48.650;8.774;2023-09-12T14:03:59;8.13;;;5.13;;
12970;SDS011;6550;48.650;8.774;2023-09-12T14:06:26;9.47;;;5.00;;
12970;SDS011;6550;48.650;8.774;2023-09-12T14:08:56;5.80;;;4.93;;
12970;SDS011;6550;48.650;8.774;2023-09-12T14:11:26;6.30;;;5.47;;
12970;SDS011;6550;48.650;8.774;2023-09-12T14:14:10;9.53;;;5.27;;
12970;SDS011;6550;48.650;8.774;2023-09-12T14:16:43;8.47;;;4.97;;
12970;SDS011;6550;48.650;8.774;2023-09-12T14:19:15;10.63;;;5.97;;
12970;SDS011;6550;48.650;8.774;2023-09-12T14:21:46;11.33;;;6.57;;
12970;SDS011;6550;48.650;8.774;2023-09-12T14:24:15;11.37;;;6.20;;
12970;SDS011;6550;48.650;8.774;2023-09-12T14:26:46;8.53;;;5.47;;
12970;SDS011;6550;48.650;8.774;2023-09-12T14:29:14;11.20;;;6.20;;
12970;SDS011;6550;48.650;8.774;2023-09-12T14:31:43;10.27;;;5.90;;
12970;SDS011;6550;48.650;8.774;2023-09-12T14:34:18;9.87;;;6.10;;
12970;SDS011;6550;48.650;8.774;2023-09-12T14:36:46;10.20;;;5.53;;
12970;SDS011;6550;48.650;8.774;2023-09-12T14:39:18;10.03;;;5.17;;
12970;SDS011;6550;48.650;8.774;2023-09-12T14:41:45;11.23;;;5.23;;
12970;SDS011;6550;48.650;8.774;2023-09-12T14:44:16;7.73;;;5.13;;
12970;SDS011;6550;48.650;8.774;2023-09-12T14:46:42;6.77;;;5.03;;
12970;SDS011;6550;48.650;8.774;2023-09-12T14:49:10;8.53;;;4.97;;
12970;SDS011;6550;48.650;8.774;2023-09-12T14:51:42;10.63;;;5.67;;
12970;SDS011;6550;48.650;8.774;2023-09-12T14:54:09;7.70;;;5.13;;
12970;SDS011;6550;48.650;8.774;2023-09-12T14:56:36;9.67;;;5.37;;
12970;SDS011;6550;48.650;8.774;2023-09-12T14:59:04;7.57;;;5.13;;
12970;SDS011;6550;48.650;8.774;2023-09-12T15:01:31;7.77;;;5.30;;
12970;SDS011;6550;48.650;8.774;2023-09-12T15:04:00;10.43;;;5.43;;
12970;SDS011;6550;48.650;8.774;2023-09-12T15:06:30;7.27;;;5.03;;
12970;SDS011;6550;48.650;8.774;2023-09-12T15:09:01;9.60;;;5.70;;
12970;SDS011;6550;48.650;8.774;2023-09-12T15:11:31;9.40;;;5.57;;
12970;SDS011;6550;48.650;8.774;2023-09-12T15:13:58;9.30;;;5.30;;
12970;SDS011;6550;48.650;8.774;2023-09-12T15:16:28;8.83;;;4.80;;
12970;SDS011;6550;48.650;8.774;2023-09-12T15:19:01;9.47;;;5.33;;
12970;SDS011;6550;48.650;8.774;2023-09-12T15:21:31;7.13;;;4.83;;
12970;SDS011;6550;48.650;8.774;2023-09-12T15:24:00;5.23;;;4.73;;
12970;SDS011;6550;48.650;8.774;2023-09-12T15:26:29;6.77;;;5.03;;
12970;SDS011;6550;48.650;8.774;2023-09-12T15:28:59;7.10;;;5.47;;
12970;SDS011;6550;48.650;8.774;2023-09-12T15:31:30;7.97;;;5.37;;
12970;SDS011;6550;48.650;8.774;2023-09-12T15:33:57;11.60;;;5.03;;